createdAt,value
2019-05-03T00:01:02.401Z,99476.06
2019-05-03T00:02:25.971Z,99471.02
2019-05-03T00:03:27.348Z,99475.67
2019-05-03T00:04:28.744Z,99479.00
2019-05-03T00:05:34.984Z,99474.34
2019-05-03T00:06:36.379Z,99472.03
2019-05-03T00:07:37.768Z,99476.06
2019-05-03T00:08:39.154Z,99479.77
2019-05-03T00:09:42.511Z,99472.53
2019-05-03T00:10:43.836Z,99478.75
2019-05-03T00:11:46.429Z,99477.41
2019-05-03T00:12:47.825Z,99480.09
2019-05-03T00:13:49.196Z,99482.25
2019-05-03T00:14:52.807Z,99481.11
2019-05-03T00:15:57.184Z,99475.42
2019-05-03T00:16:58.686Z,99470.88
2019-05-03T00:18:02.237Z,99476.77
2019-05-03T00:19:03.483Z,99475.11
2019-05-03T00:20:05.965Z,99481.50
2019-05-03T00:21:07.451Z,99482.20
2019-05-03T00:22:08.840Z,99481.88
2019-05-03T00:23:11.990Z,99486.08
2019-05-03T00:24:13.521Z,99483.92
2019-05-03T00:25:14.972Z,99478.24
2019-05-03T00:26:16.752Z,99480.92
2019-05-03T00:27:18.137Z,99473.89
2019-05-03T00:28:22.838Z,99481.10
2019-05-03T00:29:24.231Z,99478.94
2019-05-03T00:30:25.710Z,99485.33
2019-05-03T00:31:27.093Z,99484.31
2019-05-03T00:32:29.172Z,99482.02
2019-05-03T00:33:31.782Z,99483.50
2019-05-03T00:34:37.722Z,99481.69
2019-05-03T00:35:55.958Z,99482.51
2019-05-03T00:37:02.195Z,99487.52
2019-05-03T00:38:05.497Z,99482.02
2019-05-03T00:39:08.800Z,99484.02
2019-05-03T00:40:15.405Z,99484.38
2019-05-03T00:41:16.792Z,99484.90
2019-05-03T00:42:18.186Z,99485.92
2019-05-03T00:43:19.668Z,99475.89
2019-05-03T00:44:22.219Z,99486.30
2019-05-03T00:45:24.052Z,99480.09
2019-05-03T00:46:25.455Z,99481.44
2019-05-03T00:47:26.935Z,99486.80
2019-05-03T00:48:28.332Z,99485.14
2019-05-03T00:49:31.922Z,99488.14
2019-05-03T00:50:34.218Z,99491.84
2019-05-03T00:51:35.600Z,99486.48
2019-05-03T00:52:37.086Z,99483.30
2019-05-03T00:53:38.480Z,99482.59
2019-05-03T00:54:39.980Z,99491.46
2019-05-03T00:55:42.040Z,99481.75
2019-05-03T00:56:44.530Z,99487.12
2019-05-03T00:57:46.087Z,99482.59
2019-05-03T00:58:49.396Z,99483.41
2019-05-03T00:59:52.670Z,99490.64
2019-05-03T01:00:54.450Z,99492.80
2019-05-03T01:01:55.965Z,99490.64
2019-05-03T01:02:57.379Z,99490.12
2019-05-03T01:03:58.888Z,99494.67
2019-05-03T01:05:02.630Z,99490.44
2019-05-03T01:06:03.852Z,99497.67
2019-05-03T01:07:05.350Z,99491.78
2019-05-03T01:08:06.825Z,99493.45
2019-05-03T01:09:11.800Z,99493.13
2019-05-03T01:10:13.840Z,99487.05
2019-05-03T01:11:15.356Z,99495.95
2019-05-03T01:12:16.772Z,99487.05
2019-05-03T01:13:19.290Z,99496.45
2019-05-03T01:14:22.225Z,99492.42
2019-05-03T01:15:26.044Z,99492.73
2019-05-03T01:16:27.423Z,99500.30
2019-05-03T01:17:31.701Z,99495.42
2019-05-03T01:18:33.192Z,99499.45
2019-05-03T01:19:34.590Z,99503.80
2019-05-03T01:20:35.979Z,99499.45
2019-05-03T01:21:37.388Z,99500.79
2019-05-03T01:22:38.784Z,99505.84
2019-05-03T01:23:41.977Z,99498.81
2019-05-03T01:24:43.485Z,99504.70
2019-05-03T01:25:44.954Z,99502.52
2019-05-03T01:26:46.329Z,99493.65
2019-05-03T01:27:47.735Z,99499.52
2019-05-03T01:28:49.108Z,99499.02
2019-05-03T01:29:51.971Z,99494.84
2019-05-03T01:30:53.597Z,99497.53
2019-05-03T01:31:54.985Z,99498.87
2019-05-03T01:32:56.367Z,99495.05
2019-05-03T01:33:57.755Z,99493.89
2019-05-03T01:34:59.147Z,99490.88
2019-05-03T01:36:02.763Z,99499.63
2019-05-03T01:37:04.320Z,99497.80
2019-05-03T01:38:06.723Z,99496.13
2019-05-03T01:39:08.196Z,99496.45
2019-05-03T01:40:09.891Z,99491.97
2019-05-03T01:41:12.341Z,99495.98
2019-05-03T01:42:13.817Z,99497.86
2019-05-03T01:43:15.204Z,99491.64
2019-05-03T01:44:16.589Z,99499.05
2019-05-03T01:45:17.985Z,99500.71
2019-05-03T01:46:19.392Z,99499.05
2019-05-03T01:47:22.684Z,99505.58
2019-05-03T01:48:25.985Z,99503.39
2019-05-03T01:49:35.350Z,99506.08
2019-05-03T01:50:44.208Z,99504.24
2019-05-03T01:51:50.478Z,99497.53
2019-05-03T01:52:57.163Z,99499.69
2019-05-03T01:53:58.661Z,99504.73
2019-05-03T01:55:00.051Z,99502.05
2019-05-03T01:56:03.524Z,99493.69
2019-05-03T01:57:04.899Z,99497.91
2019-05-03T01:58:06.404Z,99504.63
2019-05-03T01:59:07.810Z,99500.59
2019-05-03T02:00:12.518Z,99497.07
2019-05-03T02:01:34.054Z,99499.26
2019-05-03T02:02:41.868Z,99504.09
2019-05-03T02:03:45.318Z,99499.38
2019-05-03T02:04:53.241Z,99499.90
2019-05-03T02:05:55.183Z,99498.41
2019-05-03T02:06:56.701Z,99505.61
2019-05-03T02:07:58.093Z,99493.75
2019-05-03T02:09:01.504Z,99505.44
2019-05-03T02:10:05.325Z,99497.91
2019-05-03T02:11:06.744Z,99500.92
2019-05-03T02:12:08.140Z,99498.73
2019-05-03T02:13:09.636Z,99504.41
2019-05-03T02:14:12.369Z,99499.58
2019-05-03T02:15:14.208Z,99504.41
2019-05-03T02:16:15.580Z,99503.92
2019-05-03T02:17:16.977Z,99504.41
2019-05-03T02:18:18.367Z,99505.76
2019-05-03T02:19:21.997Z,99507.95
2019-05-03T02:20:23.490Z,99504.73
2019-05-03T02:21:24.894Z,99502.58
2019-05-03T02:22:26.307Z,99504.09
2019-05-03T02:23:27.908Z,99503.59
2019-05-03T02:24:29.388Z,99500.07
2019-05-03T02:25:32.363Z,99508.44
2019-05-03T02:26:34.014Z,99505.76
2019-05-03T02:27:35.385Z,99505.27
2019-05-03T02:28:36.918Z,99506.08
2019-05-03T02:29:38.512Z,99501.03
2019-05-03T02:30:43.684Z,99503.72
2019-05-03T02:31:43.903Z,99506.40
2019-05-03T02:32:45.381Z,99508.06
2019-05-03T02:33:47.001Z,99509.41
2019-05-03T02:34:48.388Z,99508.38
2019-05-03T02:35:49.769Z,99507.36
2019-05-03T02:36:53.741Z,99503.86
2019-05-03T02:37:54.450Z,99504.67
2019-05-03T02:38:56.046Z,99506.55
2019-05-03T02:39:57.736Z,99509.23
2019-05-03T02:40:59.222Z,99510.05
2019-05-03T02:42:10.147Z,99510.36
2019-05-03T02:43:11.619Z,99507.68
2019-05-03T02:44:15.630Z,99510.36
2019-05-03T02:45:21.824Z,99505.64
2019-05-03T02:46:36.108Z,99503.66
2019-05-03T02:47:39.104Z,99513.05
2019-05-03T02:48:48.022Z,99505.84
2019-05-03T02:49:51.314Z,99508.70
2019-05-03T02:50:52.692Z,99508.70
2019-05-03T02:51:55.528Z,99511.38
2019-05-03T02:52:57.167Z,99514.06
2019-05-03T02:53:58.549Z,99509.23
2019-05-03T02:55:00.248Z,99511.70
2019-05-03T02:56:15.164Z,99509.55
2019-05-03T02:57:06.421Z,99511.20
2019-05-03T02:58:07.970Z,99509.34
2019-05-03T02:59:09.370Z,99502.31
2019-05-03T03:00:12.390Z,99509.66
2019-05-03T03:01:16.216Z,99514.53
2019-05-03T03:02:17.265Z,99508.64
2019-05-03T03:03:18.982Z,99512.17
2019-05-03T03:04:20.976Z,99515.98
2019-05-03T03:05:25.137Z,99510.30
2019-05-03T03:06:27.390Z,99518.99
2019-05-03T03:07:30.392Z,99518.67
2019-05-03T03:08:33.460Z,99517.86
2019-05-03T03:09:36.254Z,99512.66
2019-05-03T03:10:38.244Z,99518.03
2019-05-03T03:11:40.727Z,99515.55
2019-05-03T03:12:46.244Z,99517.39
2019-05-03T03:13:47.095Z,99510.89
2019-05-03T03:14:49.383Z,99508.20
2019-05-03T03:15:52.006Z,99511.06
2019-05-03T03:16:55.989Z,99518.79
2019-05-03T03:17:59.389Z,99517.12
2019-05-03T03:19:02.767Z,99515.47
2019-05-03T03:20:06.158Z,99520.72
2019-05-03T03:21:18.375Z,99517.19
2019-05-03T03:22:21.961Z,99516.22
2019-05-03T03:23:26.401Z,99521.20
2019-05-03T03:24:30.147Z,99524.06
2019-05-03T03:25:37.026Z,99520.73
2019-05-03T03:26:42.821Z,99524.27
2019-05-03T03:27:45.329Z,99527.97
2019-05-03T03:28:50.777Z,99528.78
2019-05-03T03:30:07.587Z,99531.47
2019-05-03T03:31:19.078Z,99526.63
2019-05-03T03:32:28.329Z,99533.98
2019-05-03T03:33:28.381Z,99533.98
2019-05-03T03:34:38.047Z,99532.31
2019-05-03T03:35:39.519Z,99534.84
2019-05-03T03:37:00.845Z,99535.37
2019-05-03T03:37:55.974Z,99533.71
2019-05-03T03:38:57.863Z,99535.37
2019-05-03T03:39:59.436Z,99539.89
2019-05-03T03:41:01.628Z,99541.76
2019-05-03T03:42:05.277Z,99535.92
2019-05-03T03:43:08.972Z,99539.08
2019-05-03T03:44:11.074Z,99537.20
2019-05-03T03:45:12.577Z,99541.38
2019-05-03T03:46:15.819Z,99543.86
2019-05-03T03:47:19.094Z,99543.53
2019-05-03T03:48:21.360Z,99539.34
2019-05-03T03:49:26.219Z,99545.34
2019-05-03T03:50:31.443Z,99549.69
2019-05-03T03:51:35.148Z,99545.50
2019-05-03T03:52:38.654Z,99544.97
2019-05-03T03:53:46.337Z,99542.28
2019-05-03T03:54:48.390Z,99544.97
2019-05-03T03:55:51.100Z,99550.66
2019-05-03T03:57:01.559Z,99550.33
2019-05-03T03:57:56.735Z,99552.84
2019-05-03T03:58:58.522Z,99553.16
2019-05-03T04:00:00.120Z,99551.83
2019-05-03T04:01:01.532Z,99556.66
2019-05-03T04:02:05.709Z,99552.14
2019-05-03T04:03:06.452Z,99554.30
2019-05-03T04:04:07.816Z,99558.00
2019-05-03T04:05:12.467Z,99555.00
2019-05-03T04:06:15.393Z,99554.50
2019-05-03T04:07:18.640Z,99557.19
2019-05-03T04:08:20.534Z,99555.52
2019-05-03T04:09:22.151Z,99565.41
2019-05-03T04:10:26.024Z,99561.06
2019-05-03T04:11:26.969Z,99556.02
2019-05-03T04:12:28.396Z,99547.66
2019-05-03T04:13:29.796Z,99555.70
2019-05-03T04:14:36.032Z,99554.36
2019-05-03T04:15:45.297Z,99555.38
2019-05-03T04:17:06.016Z,99548.99
2019-05-03T04:18:13.089Z,99555.70
2019-05-03T04:19:17.412Z,99551.18
2019-05-03T04:20:20.860Z,99563.10
2019-05-03T04:21:25.265Z,99557.59
2019-05-03T04:22:26.146Z,99553.45
2019-05-03T04:23:29.450Z,99552.28
2019-05-03T04:24:30.858Z,99554.14
2019-05-03T04:25:35.609Z,99556.83
2019-05-03T04:26:37.388Z,99555.66
2019-05-03T04:27:38.772Z,99558.87
2019-05-03T04:28:40.829Z,99559.68
2019-05-03T04:29:45.192Z,99557.00
2019-05-03T04:30:46.099Z,99554.52
2019-05-03T04:31:47.591Z,99558.55
2019-05-03T04:32:48.979Z,99553.50
2019-05-03T04:33:50.371Z,99554.84
2019-05-03T04:34:51.867Z,99565.89
2019-05-03T04:35:55.606Z,99563.53
2019-05-03T04:36:56.548Z,99560.33
2019-05-03T04:37:57.934Z,99567.67
2019-05-03T04:38:59.370Z,99560.16
2019-05-03T04:40:00.827Z,99568.52
2019-05-03T04:41:02.215Z,99565.52
2019-05-03T04:42:06.326Z,99568.52
2019-05-03T04:43:07.092Z,99568.52
2019-05-03T04:44:08.601Z,99567.50
2019-05-03T04:45:09.988Z,99568.84
2019-05-03T04:46:16.192Z,99573.88
2019-05-03T04:47:16.589Z,99563.16
2019-05-03T04:48:17.977Z,99572.34
2019-05-03T04:49:19.367Z,99571.53
2019-05-03T04:50:20.737Z,99578.23
2019-05-03T04:51:22.143Z,99575.23
2019-05-03T04:52:25.905Z,99573.68
2019-05-03T04:53:27.432Z,99576.89
2019-05-03T04:54:35.439Z,99577.70
2019-05-03T04:55:36.805Z,99579.57
2019-05-03T04:56:38.569Z,99578.02
2019-05-03T04:57:45.472Z,99578.55
2019-05-03T04:58:45.836Z,99583.59
2019-05-03T04:59:46.634Z,99573.36
2019-05-03T05:00:48.146Z,99575.39
2019-05-03T05:01:49.662Z,99575.60
2019-05-03T05:02:51.069Z,99578.98
2019-05-03T05:03:52.494Z,99571.11
2019-05-03T05:04:55.504Z,99568.95
2019-05-03T05:05:59.608Z,99569.97
2019-05-03T05:07:00.859Z,99578.34
2019-05-03T05:08:02.237Z,99572.97
2019-05-03T05:09:05.832Z,99568.42
2019-05-03T05:10:07.351Z,99572.45
2019-05-03T05:11:10.584Z,99573.61
2019-05-03T05:12:12.076Z,99570.23
2019-05-03T05:13:15.749Z,99570.88
2019-05-03T05:14:16.797Z,99570.50
2019-05-03T05:15:18.369Z,99578.17
2019-05-03T05:16:19.753Z,99576.28
2019-05-03T05:17:28.854Z,99580.75
2019-05-03T05:18:35.491Z,99573.87
2019-05-03T05:19:47.693Z,99583.52
2019-05-03T05:20:51.182Z,99580.09
2019-05-03T05:21:55.040Z,99586.59
2019-05-03T05:22:56.511Z,99575.48
2019-05-03T05:23:59.521Z,99580.79
2019-05-03T05:25:04.511Z,99586.59
2019-05-03T05:26:07.936Z,99589.22
2019-05-03T05:27:11.217Z,99584.95
2019-05-03T05:28:17.344Z,99584.19
2019-05-03T05:29:20.706Z,99584.77
2019-05-03T05:30:22.081Z,99586.40
2019-05-03T05:31:25.307Z,99575.59
2019-05-03T05:32:26.856Z,99582.56
2019-05-03T05:33:28.236Z,99578.25
2019-05-03T05:34:30.820Z,99583.38
2019-05-03T05:35:32.208Z,99582.61
2019-05-03T05:36:34.728Z,99582.54
2019-05-03T05:37:37.181Z,99577.41
2019-05-03T05:38:38.579Z,99582.57
2019-05-03T05:39:39.964Z,99576.31
2019-05-03T05:40:41.469Z,99580.59
2019-05-03T05:41:44.961Z,99581.55
2019-05-03T05:42:46.154Z,99582.81
2019-05-03T05:43:47.737Z,99589.45
2019-05-03T05:44:49.127Z,99587.22
2019-05-03T05:45:50.636Z,99580.11
2019-05-03T05:46:54.280Z,99584.56
2019-05-03T05:48:06.435Z,99588.52
2019-05-03T05:49:09.747Z,99598.39
2019-05-03T05:50:14.921Z,99587.24
2019-05-03T05:51:16.327Z,99591.06
2019-05-03T05:52:17.841Z,99590.70
2019-05-03T05:53:20.326Z,99594.02
2019-05-03T05:54:21.758Z,99599.00
2019-05-03T05:55:34.447Z,99584.53
2019-05-03T05:56:46.560Z,99579.25
2019-05-03T05:58:02.992Z,99578.05
2019-05-03T05:59:00.423Z,99583.03
2019-05-03T06:00:09.153Z,99589.22
2019-05-03T06:01:14.476Z,99588.91
2019-05-03T06:02:16.074Z,99582.70
2019-05-03T06:03:17.577Z,99581.68
2019-05-03T06:04:19.062Z,99579.17
2019-05-03T06:05:20.758Z,99587.77
2019-05-03T06:06:34.831Z,99587.77
2019-05-03T06:07:40.783Z,99593.64
2019-05-03T06:08:44.719Z,99593.16
2019-05-03T06:09:48.162Z,99582.89
2019-05-03T06:10:57.376Z,99585.08
2019-05-03T06:12:00.673Z,99593.86
2019-05-03T06:13:15.916Z,99583.42
2019-05-03T06:14:24.526Z,99591.17
2019-05-03T06:15:47.169Z,99596.87
2019-05-03T06:16:55.283Z,99596.23
2019-05-03T06:17:58.472Z,99596.55
2019-05-03T06:19:01.749Z,99594.26
2019-05-03T06:20:15.689Z,99595.60
2019-05-03T06:21:27.838Z,99604.70
2019-05-03T06:22:31.146Z,99595.60
2019-05-03T06:23:40.264Z,99595.92
2019-05-03T06:24:59.647Z,99599.11
2019-05-03T06:26:01.240Z,99601.80
2019-05-03T06:27:20.011Z,99603.67
2019-05-03T06:28:26.021Z,99596.00
2019-05-03T06:29:27.402Z,99599.64
2019-05-03T06:30:47.335Z,99600.03
2019-05-03T06:31:50.622Z,99597.34
2019-05-03T06:32:52.022Z,99601.69
2019-05-03T06:33:55.245Z,99595.86
2019-05-03T06:34:56.733Z,99597.42
2019-05-03T06:35:58.250Z,99599.76
2019-05-03T06:37:01.562Z,99596.08
2019-05-03T06:38:04.819Z,99598.77
2019-05-03T06:39:08.422Z,99601.77
2019-05-03T06:40:10.715Z,99592.36
2019-05-03T06:41:12.110Z,99591.83
2019-05-03T06:42:17.500Z,99594.02
2019-05-03T06:43:16.894Z,99594.34
2019-05-03T06:44:19.179Z,99595.69
2019-05-03T06:45:21.791Z,99604.56
2019-05-03T06:46:45.187Z,99601.69
2019-05-03T06:47:49.946Z,99601.38
2019-05-03T06:48:49.665Z,99602.95
2019-05-03T06:49:51.086Z,99600.45
2019-05-03T06:50:52.747Z,99599.32
2019-05-03T06:51:55.149Z,99598.29
2019-05-03T06:52:59.850Z,99603.98
2019-05-03T06:53:59.931Z,99606.85
2019-05-03T06:55:06.425Z,99605.33
2019-05-03T06:56:04.750Z,99595.92
2019-05-03T06:57:09.533Z,99591.36
2019-05-03T06:58:11.174Z,99599.64
2019-05-03T06:59:30.034Z,99604.80
2019-05-03T07:00:50.002Z,99599.95
2019-05-03T07:02:10.010Z,99607.63
2019-05-03T07:03:19.351Z,99609.28
2019-05-03T07:04:38.115Z,99613.32
2019-05-03T07:05:50.238Z,99609.16
2019-05-03T07:07:11.744Z,99605.96
2019-05-03T07:08:31.820Z,99606.99
2019-05-03T07:09:44.511Z,99608.66
2019-05-03T07:10:51.301Z,99606.67
2019-05-03T07:11:52.769Z,99608.20
2019-05-03T07:12:57.187Z,99605.41
2019-05-03T07:13:58.562Z,99607.78
2019-05-03T07:14:59.967Z,99613.97
2019-05-03T07:16:01.532Z,99612.84
2019-05-03T07:17:05.389Z,99610.65
2019-05-03T07:18:06.459Z,99617.83
2019-05-03T07:19:07.877Z,99618.14
2019-05-03T07:20:09.284Z,99618.14
2019-05-03T07:21:10.829Z,99615.45
2019-05-03T07:22:12.198Z,99615.45
2019-05-03T07:23:15.635Z,99617.11
2019-05-03T07:24:17.089Z,99617.43
2019-05-03T07:25:18.487Z,99617.75
2019-05-03T07:26:19.904Z,99619.59
2019-05-03T07:27:21.414Z,99621.47
2019-05-03T07:28:24.719Z,99620.13
2019-05-03T07:29:26.240Z,99620.13
2019-05-03T07:30:27.739Z,99620.13
2019-05-03T07:31:29.218Z,99624.47
2019-05-03T07:32:31.508Z,99622.28
2019-05-03T07:33:34.664Z,99622.28
2019-05-03T07:34:36.381Z,99620.75
2019-05-03T07:35:37.798Z,99620.22
2019-05-03T07:36:39.211Z,99623.12
2019-05-03T07:37:40.604Z,99623.44
2019-05-03T07:38:41.993Z,99625.28
2019-05-03T07:39:45.305Z,99622.41
2019-05-03T07:40:46.676Z,99615.16
2019-05-03T07:41:48.328Z,99620.54
2019-05-03T07:42:49.705Z,99623.55
2019-05-03T07:43:51.210Z,99626.23
2019-05-03T07:44:52.580Z,99626.55
2019-05-03T07:45:55.237Z,99628.42
2019-05-03T07:46:56.901Z,99622.52
2019-05-03T07:47:58.289Z,99617.14
2019-05-03T07:48:59.676Z,99619.33
2019-05-03T07:50:01.266Z,99609.07
2019-05-03T07:51:02.857Z,99620.99
2019-05-03T07:52:05.984Z,99618.48
2019-05-03T07:53:07.477Z,99616.11
2019-05-03T07:54:08.876Z,99618.80
2019-05-03T07:55:10.295Z,99625.02
2019-05-03T07:56:15.474Z,99620.99
2019-05-03T07:57:30.664Z,99618.30
2019-05-03T07:58:35.167Z,99624.00
2019-05-03T07:59:36.743Z,99621.41
2019-05-03T08:00:38.233Z,99617.59
2019-05-03T08:01:41.692Z,99630.91
2019-05-03T08:02:44.692Z,99622.02
2019-05-03T08:03:46.197Z,99620.46
2019-05-03T08:04:47.795Z,99619.33
2019-05-03T08:05:49.167Z,99624.70
2019-05-03T08:06:50.559Z,99632.78
2019-05-03T08:07:51.940Z,99625.34
2019-05-03T08:08:54.536Z,99629.06
2019-05-03T08:09:56.179Z,99629.06
2019-05-03T08:10:57.690Z,99619.12
2019-05-03T08:11:59.098Z,99629.38
2019-05-03T08:13:00.657Z,99620.28
2019-05-03T08:14:04.852Z,99631.35
2019-05-03T08:15:06.838Z,99629.69
2019-05-03T08:16:08.206Z,99637.05
2019-05-03T08:17:09.608Z,99630.83
2019-05-03T08:18:11.173Z,99635.70
2019-05-03T08:19:12.584Z,99621.73
2019-05-03T08:20:14.440Z,99632.30
2019-05-03T08:21:15.907Z,99636.02
2019-05-03T08:22:17.313Z,99629.61
2019-05-03T08:23:29.155Z,99632.30
2019-05-03T08:24:22.127Z,99639.03
2019-05-03T08:25:24.975Z,99637.19
2019-05-03T08:26:26.402Z,99633.65
2019-05-03T08:27:27.862Z,99638.00
2019-05-03T08:28:29.292Z,99633.33
2019-05-03T08:29:30.711Z,99630.64
2019-05-03T08:30:36.593Z,99633.33
2019-05-03T08:31:56.208Z,99629.69
2019-05-03T08:32:59.597Z,99631.35
2019-05-03T08:34:08.693Z,99638.08
2019-05-03T08:35:17.950Z,99634.44
2019-05-03T08:36:19.344Z,99634.62
2019-05-03T08:37:27.888Z,99632.78
2019-05-03T08:38:28.457Z,99636.49
2019-05-03T08:39:29.955Z,99637.52
2019-05-03T08:40:35.003Z,99640.70
2019-05-03T08:41:38.443Z,99640.70
2019-05-03T08:42:39.832Z,99641.55
2019-05-03T08:43:41.224Z,99651.28
2019-05-03T08:44:42.640Z,99648.28
2019-05-03T08:45:44.724Z,99646.94
2019-05-03T08:46:47.314Z,99656.34
2019-05-03T08:47:48.819Z,99645.59
2019-05-03T08:48:50.206Z,99652.31
2019-05-03T08:49:51.636Z,99646.94
2019-05-03T08:50:55.284Z,99649.09
2019-05-03T08:51:56.311Z,99649.94
2019-05-03T08:52:57.692Z,99644.03
2019-05-03T08:53:59.092Z,99656.45
2019-05-03T08:55:00.485Z,99654.30
2019-05-03T08:56:01.994Z,99652.42
2019-05-03T08:57:06.209Z,99651.92
2019-05-03T08:58:07.815Z,99650.05
2019-05-03T08:59:09.426Z,99651.20
2019-05-03T09:00:14.481Z,99652.55
2019-05-03T09:01:16.014Z,99662.78
2019-05-03T09:02:18.449Z,99656.91
2019-05-03T09:03:20.405Z,99655.03
2019-05-03T09:04:34.187Z,99651.52
2019-05-03T09:05:25.536Z,99651.31
2019-05-03T09:06:27.026Z,99649.97
2019-05-03T09:07:28.518Z,99654.00
2019-05-03T09:08:30.008Z,99655.16
2019-05-03T09:09:34.840Z,99658.70
2019-05-03T09:10:38.984Z,99652.80
2019-05-03T09:11:40.493Z,99654.45
2019-05-03T09:13:03.330Z,99649.39
2019-05-03T09:14:08.186Z,99651.58
2019-05-03T09:15:10.240Z,99653.88
2019-05-03T09:16:11.679Z,99654.91
2019-05-03T09:17:15.143Z,99656.25
2019-05-03T09:18:17.533Z,99653.24
2019-05-03T09:19:19.096Z,99646.52
2019-05-03T09:20:20.524Z,99656.75
2019-05-03T09:21:21.896Z,99647.66
2019-05-03T09:22:25.412Z,99644.47
2019-05-03T09:23:26.818Z,99649.31
2019-05-03T09:24:28.321Z,99648.81
2019-05-03T09:25:29.836Z,99653.66
2019-05-03T09:26:31.225Z,99645.41
2019-05-03T09:27:34.331Z,99655.64
2019-05-03T09:28:35.808Z,99649.45
2019-05-03T09:29:43.111Z,99651.42
2019-05-03T09:30:40.601Z,99644.88
2019-05-03T09:31:41.972Z,99641.16
2019-05-03T09:32:44.720Z,99642.51
2019-05-03T09:33:46.516Z,99642.83
2019-05-03T09:34:47.902Z,99648.05
2019-05-03T09:35:49.284Z,99650.22
2019-05-03T09:36:50.676Z,99654.56
2019-05-03T09:37:52.061Z,99650.53
2019-05-03T09:38:54.943Z,99640.62
2019-05-03T09:39:56.556Z,99647.03
2019-05-03T09:40:58.081Z,99655.20
2019-05-03T09:41:59.452Z,99647.45
2019-05-03T09:43:00.853Z,99653.05
2019-05-03T09:44:04.631Z,99648.69
2019-05-03T09:45:06.523Z,99656.05
2019-05-03T09:46:08.037Z,99650.34
2019-05-03T09:47:09.460Z,99653.36
2019-05-03T09:48:10.871Z,99654.38
2019-05-03T09:49:14.449Z,99650.53
2019-05-03T09:50:15.789Z,99654.07
2019-05-03T09:51:17.224Z,99651.88
2019-05-03T09:52:18.605Z,99647.84
2019-05-03T09:53:21.910Z,99652.41
2019-05-03T09:54:25.575Z,99656.76
2019-05-03T09:55:37.869Z,99660.48
2019-05-03T09:56:58.542Z,99659.63
2019-05-03T09:57:59.468Z,99653.75
2019-05-03T09:59:00.877Z,99652.72
2019-05-03T10:00:06.816Z,99651.74
2019-05-03T10:01:09.536Z,99659.99
2019-05-03T10:02:11.135Z,99658.33
2019-05-03T10:03:12.644Z,99664.42
2019-05-03T10:04:14.091Z,99660.39
2019-05-03T10:05:15.669Z,99654.20
2019-05-03T10:06:17.733Z,99664.42
2019-05-03T10:07:19.538Z,99658.23
2019-05-03T10:08:21.050Z,99663.39
2019-05-03T10:09:22.651Z,99659.36
2019-05-03T10:10:24.811Z,99660.70
2019-05-03T10:11:26.542Z,99658.33
2019-05-03T10:12:28.152Z,99656.98
2019-05-03T10:13:29.538Z,99658.33
2019-05-03T10:14:30.941Z,99661.66
2019-05-03T10:15:37.229Z,99669.72
2019-05-03T10:16:46.845Z,99667.88
2019-05-03T10:17:50.159Z,99676.30
2019-05-03T10:18:51.544Z,99674.95
2019-05-03T10:19:54.729Z,99667.88
2019-05-03T10:20:56.442Z,99685.87
2019-05-03T10:21:57.923Z,99686.89
2019-05-03T10:23:01.256Z,99693.83
2019-05-03T10:24:05.581Z,99688.95
2019-05-03T10:25:07.733Z,99692.67
2019-05-03T10:26:09.210Z,99695.05
2019-05-03T10:27:10.614Z,99698.26
2019-05-03T10:28:12.125Z,99698.66
2019-05-03T10:29:15.239Z,99700.00
2019-05-03T10:30:19.894Z,99704.22
2019-05-03T10:31:25.160Z,99705.55
2019-05-03T10:32:44.932Z,99705.23
2019-05-03T10:33:48.425Z,99707.61
2019-05-03T10:35:05.690Z,99713.31
2019-05-03T10:36:08.048Z,99718.76
2019-05-03T10:37:11.361Z,99727.96
2019-05-03T10:38:15.024Z,99727.72
2019-05-03T10:39:17.281Z,99719.54
2019-05-03T10:40:25.616Z,99726.97
2019-05-03T10:41:27.016Z,99737.41
2019-05-03T10:42:28.397Z,99735.75
2019-05-03T10:43:30.794Z,99735.61
2019-05-03T10:44:32.301Z,99736.31
2019-05-03T10:45:35.521Z,99733.83
2019-05-03T10:46:37.026Z,99736.20
2019-05-03T10:47:39.440Z,99738.89
2019-05-03T10:48:40.858Z,99734.33
2019-05-03T10:49:42.277Z,99738.89
2019-05-03T10:50:43.653Z,99731.50
2019-05-03T10:51:49.724Z,99740.09
2019-05-03T10:53:02.346Z,99737.09
2019-05-03T10:54:05.220Z,99738.22
2019-05-03T10:55:06.905Z,99740.41
2019-05-03T10:56:22.605Z,99734.40
2019-05-03T10:57:22.483Z,99738.93
2019-05-03T10:58:25.009Z,99738.75
2019-05-03T10:59:26.618Z,99745.97
2019-05-03T11:00:50.278Z,99742.96
2019-05-03T11:01:35.737Z,99739.45
2019-05-03T11:02:38.740Z,99736.77
2019-05-03T11:03:40.163Z,99740.59
2019-05-03T11:04:43.698Z,99733.55
2019-05-03T11:05:45.432Z,99735.21
2019-05-03T11:06:46.943Z,99739.25
2019-05-03T11:07:48.328Z,99754.03
2019-05-03T11:08:49.713Z,99743.10
2019-05-03T11:09:52.526Z,99734.54
2019-05-03T11:10:55.055Z,99740.73
2019-05-03T11:11:57.924Z,99744.77
2019-05-03T11:12:59.468Z,99735.88
2019-05-03T11:14:00.863Z,99740.23
2019-05-03T11:15:04.652Z,99745.09
2019-05-03T11:16:06.456Z,99745.09
2019-05-03T11:17:07.833Z,99739.21
2019-05-03T11:18:09.237Z,99747.28
2019-05-03T11:19:11.141Z,99741.58
2019-05-03T11:20:28.210Z,99740.55
2019-05-03T11:21:28.185Z,99741.58
2019-05-03T11:22:25.055Z,99744.27
2019-05-03T11:23:28.222Z,99739.21
2019-05-03T11:24:30.717Z,99741.05
2019-05-03T11:25:34.335Z,99739.21
2019-05-03T11:26:36.038Z,99746.95
2019-05-03T11:27:51.172Z,99740.55
2019-05-03T11:28:52.769Z,99741.90
2019-05-03T11:29:55.601Z,99750.92
2019-05-03T11:31:02.212Z,99747.06
2019-05-03T11:32:09.405Z,99741.37
2019-05-03T11:33:15.363Z,99742.22
2019-05-03T11:34:22.240Z,99745.93
2019-05-03T11:35:24.730Z,99741.37
2019-05-03T11:36:28.201Z,99750.28
2019-05-03T11:37:37.373Z,99746.95
2019-05-03T11:38:40.713Z,99754.35
2019-05-03T11:39:42.129Z,99752.83
2019-05-03T11:40:45.510Z,99751.34
2019-05-03T11:41:48.763Z,99751.03
2019-05-03T11:42:51.176Z,99759.09
2019-05-03T11:43:52.558Z,99758.77
2019-05-03T11:44:53.968Z,99752.05
2019-05-03T11:45:55.623Z,99758.77
2019-05-03T11:46:57.258Z,99750.91
2019-05-03T11:47:58.673Z,99755.45
2019-05-03T11:49:00.093Z,99758.13
2019-05-03T11:50:02.591Z,99757.81
2019-05-03T11:51:04.111Z,99757.49
2019-05-03T11:52:06.509Z,99759.16
2019-05-03T11:53:08.138Z,99762.38
2019-05-03T11:54:09.557Z,99757.49
2019-05-03T11:55:12.110Z,99760.00
2019-05-03T11:56:14.822Z,99752.97
2019-05-03T11:57:18.272Z,99755.13
2019-05-03T11:58:21.153Z,99761.67
2019-05-03T11:59:22.564Z,99755.77
2019-05-03T12:00:26.823Z,99756.30
2019-05-03T12:01:30.195Z,99759.80
2019-05-03T12:02:33.514Z,99763.51
2019-05-03T12:03:36.833Z,99764.36
2019-05-03T12:04:38.257Z,99769.20
2019-05-03T12:05:40.830Z,99761.67
2019-05-03T12:06:42.310Z,99764.53
2019-05-03T12:07:45.496Z,99767.86
2019-05-03T12:08:47.011Z,99759.30
2019-05-03T12:09:48.389Z,99757.95
2019-05-03T12:10:57.917Z,99762.31
2019-05-03T12:11:55.404Z,99768.18
2019-05-03T12:12:58.816Z,99770.69
2019-05-03T12:14:12.639Z,99769.35
2019-05-03T12:15:15.123Z,99766.13
2019-05-03T12:16:24.004Z,99771.83
2019-05-03T12:17:26.804Z,99777.91
2019-05-03T12:18:26.034Z,99773.38
2019-05-03T12:19:31.164Z,99778.23
2019-05-03T12:20:32.516Z,99771.52
2019-05-03T12:21:37.673Z,99776.39
2019-05-03T12:22:38.571Z,99786.62
2019-05-03T12:23:41.209Z,99774.52
2019-05-03T12:24:45.538Z,99780.42
2019-05-03T12:25:46.990Z,99778.23